Time;durP1;ratioP1;P1;durP2;ratioP2;P2;SDS_P1;SDS_P2;PMS_P1;PMS_P2;Temp;Humidity;BMP_temperature;BMP_pressure;BME280_temperature;BME280_humidity;BME280_pressure;Samples;Min_cycle;Max_cycle;Signal;HPM_P1;HPM_P2
2023/04/29 07:03:03;;;;;;;5.88;4.35;;;;;;;11.55;93.91;96510.63;2085978;28;21101;-66
2023/04/29 08:07:31;;;;;;;6.25;2.45;;;;;;;12.11;89.02;96558.34;2104261;27;20571;-67
2023/04/29 08:09:45;;;;;;;4.55;2.20;;;;;;;12.30;88.50;96557.41;2106008;27;20574;-67
2023/04/29 08:12:04;;;;;;;5.90;3.50;;;;;;;12.10;88.85;96543.59;2086647;28;20578;-66
2023/04/29 08:28:01;;;;;;;11.25;3.10;;;;;;;12.16;86.69;96561.56;2084065;27;20550;-65
2023/04/29 08:29:03;;;;;;;5.70;2.60;;;;;;;12.18;86.48;96557.13;2081172;28;20216;-66
2023/04/29 08:30:05;;;;;;;3.65;2.95;;;;;;;12.45;86.43;96564.44;2079113;28;20193;-66
2023/04/29 08:31:06;;;;;;;9.90;2.70;;;;;;;12.50;85.59;96558.97;2082292;28;20233;-67
2023/04/29 08:32:08;;;;;;;4.22;2.50;;;;;;;12.75;84.78;96571.56;2073098;28;20226;-68
2023/04/29 08:33:11;;;;;;;8.13;2.60;;;;;;;12.83;84.93;96571.16;2073485;28;20255;-68
2023/04/29 08:34:13;;;;;;;3.90;2.33;;;;;;;12.98;84.49;96570.31;2074444;28;20663;-68
2023/04/29 08:35:15;;;;;;;3.50;2.13;;;;;;;13.10;84.02;96573.16;2070682;28;20243;-68
2023/04/29 08:36:16;;;;;;;4.10;2.85;;;;;;;13.01;83.82;96569.28;2070920;28;20217;-68
2023/04/29 08:37:19;;;;;;;4.28;3.00;;;;;;;13.00;83.65;96571.06;2069879;28;20221;-68
2023/04/29 08:38:21;;;;;;;6.88;2.00;;;;;;;13.05;83.74;96571.66;2063859;28;20882;-68
2023/04/29 08:39:22;;;;;;;4.18;2.40;;;;;;;13.14;84.14;96567.69;2065739;28;20772;-68
2023/04/29 08:40:24;;;;;;;5.07;2.78;;;;;;;13.13;83.96;96560.75;2062758;28;20226;-68
2023/04/29 08:41:25;;;;;;;5.55;2.22;;;;;;;13.22;83.14;96562.84;2064137;28;20194;-68
2023/04/29 08:42:35;;;;;;;2.67;1.80;;;;;;;13.20;83.32;96563.84;2065673;28;20222;-68
2023/04/29 08:43:36;;;;;;;3.45;2.40;;;;;;;13.10;83.58;96558.28;2070964;28;20231;-68
2023/04/29 08:44:40;;;;;;;4.95;2.50;;;;;;;13.23;83.41;96568.94;2068400;28;20205;-68
2023/04/29 08:45:42;;;;;;;5.68;2.15;;;;;;;13.22;83.69;96575.94;2072148;28;20202;-68
2023/04/29 08:46:45;;;;;;;3.15;2.05;;;;;;;13.38;83.29;96578.59;2068301;28;20728;-68
2023/04/29 08:48:57;;;;;;;10.65;2.20;;;;;;;13.19;83.94;96576.13;2100297;27;20582;-66
2023/04/29 08:51:18;;;;;;;5.85;2.10;;;;;;;12.93;83.11;96574.97;2082038;28;20563;-66
2023/04/29 08:53:38;;;;;;;4.82;2.53;;;;;;;12.68;84.99;96572.81;2106292;27;20556;-65
2023/04/29 09:06:44;;;;;;;4.60;1.83;;;;;;;12.29;87.24;96574.91;2082565;27;20569;-60
2023/04/29 09:09:06;;;;;;;3.38;2.08;;;;;;;12.52;86.45;96581.53;2100970;27;20687;-60
2023/04/29 09:10:08;;;;;;;7.35;2.00;;;;;;;12.76;86.21;96588.13;2091141;28;20539;-60
2023/04/29 09:11:11;;;;;;;2.55;1.80;;;;;;;12.77;85.78;96595.06;2079161;28;20197;-60
2023/04/29 09:12:12;;;;;;;3.53;2.05;;;;;;;12.80;85.74;96592.25;2073806;28;20280;-60
2023/04/29 09:13:27;;;;;;;2.90;1.88;;;;;;;12.85;84.85;96592.84;2073193;28;20198;-61
2023/04/29 09:14:32;;;;;;;3.50;1.88;;;;;;;12.90;84.23;96589.06;2075192;28;20709;-60
2023/04/29 09:15:39;;;;;;;4.10;2.03;;;;;;;13.04;83.81;96598.78;2076461;28;20292;-61
2023/04/29 09:16:40;;;;;;;6.22;2.75;;;;;;;13.29;83.74;96584.31;2079810;28;20263;-60
2023/04/29 09:17:43;;;;;;;3.17;1.90;;;;;;;13.26;82.37;96594.97;2087246;28;20292;-60
2023/04/29 09:18:49;;;;;;;5.32;2.25;;;;;;;13.50;82.46;96597.19;2086701;28;20706;-60
2023/04/29 09:19:51;;;;;;;3.08;1.85;;;;;;;13.68;80.74;96595.28;2078859;28;20225;-60
2023/04/29 09:20:53;;;;;;;2.45;1.77;;;;;;;13.84;80.96;96596.06;2079331;28;20226;-61
2023/04/29 09:21:57;;;;;;;3.75;2.10;;;;;;;13.96;79.99;96597.13;2077956;28;20226;-61
2023/04/29 09:23:02;;;;;;;8.15;2.45;;;;;;;13.98;79.74;96597.00;2079735;28;20553;-60
2023/04/29 09:24:03;;;;;;;4.45;2.00;;;;;;;14.00;79.00;96590.75;2079933;28;20213;-61
2023/04/29 09:25:12;;;;;;;3.35;1.92;;;;;;;14.11;79.34;96587.50;2077898;28;20412;-61
2023/04/29 09:26:14;;;;;;;12.75;1.75;;;;;;;14.45;78.76;96595.09;2078826;28;20209;-61
2023/04/29 09:27:26;;;;;;;4.20;1.73;;;;;;;14.54;78.07;96595.38;2068449;28;20317;-60
2023/04/29 09:28:28;;;;;;;3.50;1.85;;;;;;;14.45;78.08;96585.44;2071290;28;20623;-60
2023/04/29 09:29:31;;;;;;;4.22;2.30;;;;;;;14.50;77.62;96598.28;2083976;28;20198;-61
2023/04/29 09:30:44;;;;;;;2.20;1.80;;;;;;;14.49;77.57;96594.81;2082551;28;20246;-61
2023/04/29 09:31:46;;;;;;;4.10;2.00;;;;;;;14.52;77.01;96589.41;2073599;28;20226;-60
2023/04/29 09:33:08;;;;;;;3.55;2.30;;;;;;;14.75;75.40;96596.81;2077571;28;20213;-60
2023/04/29 09:34:13;;;;;;;4.68;1.83;;;;;;;14.82;75.36;96598.97;2080382;28;20201;-60
2023/04/29 09:35:21;;;;;;;4.70;2.80;;;;;;;14.63;74.91;96593.97;2080066;28;20650;-60
2023/04/29 09:36:48;;;;;;;5.75;2.15;;;;;;;14.86;75.90;96599.63;2077342;28;20297;-65
2023/04/29 09:37:53;;;;;;;2.85;2.05;;;;;;;14.70;76.08;96597.09;2080299;28;20221;-66
2023/04/29 09:38:54;;;;;;;3.88;1.92;;;;;;;14.97;75.24;96601.56;2079302;28;20224;-66
2023/04/29 09:39:56;;;;;;;2.80;1.40;;;;;;;15.17;74.60;96595.91;2077280;28;20233;-67
2023/04/29 09:40:58;;;;;;;3.28;1.73;;;;;;;15.00;73.80;96598.75;2069707;28;20194;-66
2023/04/29 09:42:03;;;;;;;3.25;2.20;;;;;;;14.74;73.64;96600.38;2066393;28;20648;-66
2023/04/29 09:43:17;;;;;;;4.00;1.73;;;;;;;14.86;74.35;96604.88;2079990;28;20193;-67
2023/04/29 09:44:18;;;;;;;3.30;1.75;;;;;;;14.47;76.01;96604.56;2078905;28;20204;-66
2023/04/29 09:45:36;;;;;;;6.20;2.03;;;;;;;14.41;75.47;96604.13;2079499;28;20201;-67
2023/04/29 09:46:38;;;;;;;3.65;2.08;;;;;;;14.46;74.85;96600.28;2081420;28;20201;-66
2023/04/29 09:47:40;;;;;;;3.08;1.65;;;;;;;14.50;74.63;96603.53;2076955;28;20810;-66
2023/04/29 09:48:41;;;;;;;3.55;1.95;;;;;;;14.41;75.35;96606.75;2080527;28;20525;-66
2023/04/29 09:49:48;;;;;;;3.08;2.05;;;;;;;14.30;75.20;96610.03;2079049;28;20233;-66
2023/04/29 09:51:03;;;;;;;2.90;1.88;;;;;;;14.19;75.19;96611.53;2070742;28;20317;-66
2023/04/29 09:52:19;;;;;;;3.15;1.55;;;;;;;13.96;76.24;96607.63;2070178;28;20224;-66
2023/04/29 09:53:29;;;;;;;4.10;1.73;;;;;;;14.04;77.09;96613.28;2072326;28;20203;-66
2023/04/29 09:54:33;;;;;;;4.22;1.98;;;;;;;14.16;76.35;96613.47;2075508;28;20221;-66
2023/04/29 09:55:52;;;;;;;2.45;1.80;;;;;;;13.70;76.47;96614.41;2075860;28;20206;-66
2023/04/29 09:56:56;;;;;;;3.17;1.80;;;;;;;13.81;76.14;96622.47;2076434;28;20224;-67
2023/04/29 09:57:57;;;;;;;3.70;2.10;;;;;;;13.74;76.81;96613.28;2078725;28;20270;-67
2023/04/29 09:59:07;;;;;;;4.35;1.88;;;;;;;13.79;76.94;96616.50;2078561;28;20689;-66
2023/04/29 10:00:09;;;;;;;3.22;1.85;;;;;;;13.93;76.68;96622.69;2078971;28;20284;-66
2023/04/29 10:01:13;;;;;;;2.67;1.75;;;;;;;14.04;75.97;96613.28;2080782;28;20280;-67
2023/04/29 10:02:16;;;;;;;5.43;2.22;;;;;;;14.15;76.63;96617.03;2078064;28;20240;-67
2023/04/29 10:03:20;;;;;;;4.68;2.15;;;;;;;13.94;76.37;96622.63;2080637;28;20287;-66
2023/04/29 10:04:24;;;;;;;7.93;1.92;;;;;;;14.02;76.64;96619.56;2080278;28;20648;-67
2023/04/29 10:05:30;;;;;;;4.13;2.15;;;;;;;13.94;76.61;96616.50;2076533;28;20203;-67
2023/04/29 10:06:31;;;;;;;3.80;2.10;;;;;;;13.90;75.90;96621.09;2071342;28;20198;-66
2023/04/29 10:07:33;;;;;;;2.97;2.25;;;;;;;13.91;75.77;96617.53;2071180;28;20218;-67
2023/04/29 10:08:34;;;;;;;4.95;2.20;;;;;;;13.89;75.68;96622.06;2068026;28;20230;-66
2023/04/29 10:09:39;;;;;;;6.28;3.13;;;;;;;13.84;76.16;96621.44;2062850;28;20332;-67
2023/04/29 10:10:41;;;;;;;5.00;2.58;;;;;;;14.08;75.89;96613.94;2066662;28;20741;-67
2023/04/29 10:11:44;;;;;;;4.47;2.60;;;;;;;14.24;76.32;96621.72;2064276;28;20718;-66
2023/04/29 10:12:46;;;;;;;10.90;3.20;;;;;;;14.40;76.16;96619.03;2068081;28;20253;-67
2023/04/29 10:13:51;;;;;;;3.25;2.47;;;;;;;14.63;74.93;96608.91;2078554;28;20218;-67
2023/04/29 10:15:04;;;;;;;3.15;2.15;;;;;;;14.45;73.96;96618.75;2078457;28;20204;-67
2023/04/29 10:16:26;;;;;;;3.22;1.95;;;;;;;14.56;73.85;96615.47;2079025;28;20678;-67
2023/04/29 10:17:53;;;;;;;2.55;2.00;;;;;;;14.61;73.10;96621.28;2081323;28;20229;-66
2023/04/29 10:18:58;;;;;;;3.25;2.15;;;;;;;14.68;72.78;96620.84;2081210;28;20198;-66
2023/04/29 10:20:04;;;;;;;4.70;2.47;;;;;;;14.44;72.20;96619.72;2076071;28;20285;-66
2023/04/29 10:21:10;;;;;;;10.40;2.90;;;;;;;14.51;72.41;96623.63;2071618;28;20249;-66
2023/04/29 10:22:21;;;;;;;7.28;2.72;;;;;;;14.92;71.77;96619.41;2074231;28;20701;-66
2023/04/29 10:23:23;;;;;;;6.63;2.60;;;;;;;14.92;72.22;96609.75;2075215;28;20225;-67
2023/04/29 10:24:25;;;;;;;4.15;2.30;;;;;;;14.91;72.12;96617.75;2066761;28;20225;-67
2023/04/29 10:25:28;;;;;;;7.40;2.20;;;;;;;14.85;71.84;96617.19;2065055;28;20198;-67
2023/04/29 10:26:30;;;;;;;5.32;2.67;;;;;;;14.78;70.96;96613.25;2075468;28;20699;-66
2023/04/29 10:27:33;;;;;;;8.68;2.20;;;;;;;14.97;71.04;96617.34;2077038;28;20237;-66
2023/04/29 10:28:38;;;;;;;6.65;2.72;;;;;;;15.06;70.74;96614.16;2069505;28;20210;-66
2023/04/29 10:29:42;;;;;;;4.25;2.60;;;;;;;15.18;70.33;96616.00;2064107;28;20226;-67
2023/04/29 10:30:44;;;;;;;4.47;2.38;;;;;;;15.01;70.40;96608.34;2070531;28;20206;-66
2023/04/29 10:31:48;;;;;;;6.97;2.88;;;;;;;14.95;69.53;96617.44;2072153;28;20760;-66
2023/04/29 10:32:50;;;;;;;2.80;1.95;;;;;;;15.03;70.28;96609.06;2074978;28;20296;-66
2023/04/29 10:33:57;;;;;;;7.03;2.88;;;;;;;15.11;70.17;96613.84;2074538;28;20594;-66
2023/04/29 10:34:59;;;;;;;6.50;2.42;;;;;;;14.98;69.83;96611.16;2073409;28;20203;-66
2023/04/29 10:36:02;;;;;;;4.10;2.55;;;;;;;14.70;69.98;96599.72;2071005;28;20209;-66
2023/04/29 10:37:05;;;;;;;4.50;2.20;;;;;;;14.67;70.64;96597.28;2074660;28;20643;-67
2023/04/29 10:38:22;;;;;;;8.88;2.85;;;;;;;14.97;70.23;96612.06;2070355;28;20210;-67
2023/04/29 10:39:56;;;;;;;4.13;2.55;;;;;;;14.78;70.23;96613.25;2065365;28;20738;-67
2023/04/29 10:41:02;;;;;;;7.93;2.10;;;;;;;15.02;70.46;96613.50;2038869;28;20700;-67
2023/04/29 10:42:14;;;;;;;5.97;2.17;;;;;;;14.67;70.59;96595.50;2036839;28;20225;-65
2023/04/29 10:43:22;;;;;;;4.53;2.53;;;;;;;14.56;70.96;96604.97;2071352;28;20210;-66
2023/04/29 10:44:24;;;;;;;5.03;2.42;;;;;;;14.37;69.88;96608.69;2064358;28;20661;-66
2023/04/29 10:45:27;;;;;;;5.88;2.53;;;;;;;14.34;69.55;96606.28;2064424;28;20198;-66
2023/04/29 10:46:29;;;;;;;4.75;2.55;;;;;;;14.02;69.69;96606.44;2060744;28;20238;-66
2023/04/29 10:47:30;;;;;;;4.93;2.42;;;;;;;14.03;70.98;96598.44;2062842;28;20226;-66
2023/04/29 10:48:32;;;;;;;5.82;2.53;;;;;;;13.90;71.93;96605.34;2072925;28;20700;-66
2023/04/29 10:49:34;;;;;;;3.55;2.00;;;;;;;13.93;71.47;96610.44;2069185;28;20269;-66
2023/04/29 10:50:35;;;;;;;4.38;2.00;;;;;;;14.00;72.12;96610.91;2071194;28;20206;-66
2023/04/29 10:51:40;;;;;;;6.40;2.63;;;;;;;13.79;72.31;96613.88;2071549;28;20230;-66
2023/04/29 10:52:51;;;;;;;4.75;2.75;;;;;;;13.71;72.28;96603.81;2063694;28;20214;-66
2023/04/29 10:54:09;;;;;;;7.70;2.88;;;;;;;13.70;72.33;96606.53;2055005;28;20232;-66
2023/04/29 10:55:11;;;;;;;3.60;2.95;;;;;;;13.57;72.46;96614.25;2065818;28;20198;-66
2023/04/29 10:56:12;;;;;;;4.47;2.30;;;;;;;13.59;73.13;96601.88;2072636;28;20209;-66
2023/04/29 10:57:20;;;;;;;3.50;2.80;;;;;;;13.66;73.01;96605.00;2072398;28;20229;-66
2023/04/29 10:58:40;;;;;;;9.32;2.25;;;;;;;13.95;73.44;96603.28;2074083;28;20217;-66
2023/04/29 10:59:41;;;;;;;4.60;2.40;;;;;;;13.92;72.54;96610.53;2073853;28;20197;-66
2023/04/29 11:00:43;;;;;;;8.02;2.42;;;;;;;13.99;72.52;96607.44;2072585;28;20906;-66
2023/04/29 11:01:46;;;;;;;6.63;2.22;;;;;;;13.54;71.88;96583.78;2070275;28;20318;-66
2023/04/29 11:02:48;;;;;;;5.20;2.20;;;;;;;13.49;72.23;96598.94;2068870;28;20199;-66
2023/04/29 11:04:00;;;;;;;3.67;2.38;;;;;;;13.54;71.89;96599.53;2073569;28;20249;-66
2023/04/29 11:05:07;;;;;;;6.68;2.50;;;;;;;13.75;72.54;96601.88;2070349;28;20206;-66
2023/04/29 11:06:10;;;;;;;2.92;2.15;;;;;;;13.85;71.36;96602.16;2067197;28;20244;-66
2023/04/29 11:07:27;;;;;;;3.85;2.40;;;;;;;14.58;69.82;96603.09;2074246;28;20222;-65
2023/04/29 11:08:29;;;;;;;5.40;1.98;;;;;;;15.24;67.75;96587.63;2074535;28;20239;-66
2023/04/29 11:09:35;;;;;;;3.67;2.35;;;;;;;15.27;65.84;96597.94;2073624;28;20246;-65
2023/04/29 11:10:40;;;;;;;4.15;2.15;;;;;;;15.42;66.29;96590.84;2065965;28;20241;-66
2023/04/29 11:11:52;;;;;;;7.45;2.95;;;;;;;15.83;65.98;96598.69;2064365;28;20199;-65
2023/04/29 11:13:20;;;;;;;4.47;2.42;;;;;;;15.72;65.18;96597.66;2072740;28;20202;-66
2023/04/29 11:14:29;;;;;;;6.10;2.60;;;;;;;15.91;65.97;96584.13;2058883;28;20207;-66
2023/04/29 11:15:31;;;;;;;5.88;2.90;;;;;;;15.73;64.90;96594.94;2064126;28;20354;-66
2023/04/29 11:16:36;;;;;;;6.72;2.67;;;;;;;15.60;66.12;96592.25;2066748;28;20195;-66
2023/04/29 11:17:38;;;;;;;6.32;2.78;;;;;;;15.24;64.76;96593.72;2075204;28;20197;-66
2023/04/29 11:19:08;;;;;;;3.90;2.75;;;;;;;15.32;64.76;96586.16;2070715;28;20268;-66
2023/04/29 11:20:12;;;;;;;4.65;2.63;;;;;;;15.24;66.03;96587.63;2071760;28;20226;-66
2023/04/29 11:21:14;;;;;;;4.10;2.40;;;;;;;15.40;66.28;96595.34;2070684;28;20199;-66
2023/04/29 11:22:22;;;;;;;5.00;2.55;;;;;;;15.30;65.97;96590.69;2074173;28;20229;-66
2023/04/29 11:23:23;;;;;;;6.60;2.00;;;;;;;14.82;66.24;96591.09;2074584;28;20203;-67
2023/04/29 11:24:28;;;;;;;3.38;2.30;;;;;;;14.47;67.09;96585.34;2064201;28;20632;-67
2023/04/29 11:25:29;;;;;;;3.40;2.40;;;;;;;14.58;67.88;96582.91;2065523;28;20199;-67
2023/04/29 11:26:33;;;;;;;3.50;2.05;;;;;;;14.46;68.40;96579.25;2075006;28;20201;-67
2023/04/29 11:27:37;;;;;;;3.45;2.30;;;;;;;14.50;67.91;96593.03;2066030;28;20258;-67
2023/04/29 11:28:42;;;;;;;4.65;2.35;;;;;;;14.66;68.45;96582.47;2064604;28;20205;-67
2023/04/29 11:29:45;;;;;;;5.60;2.10;;;;;;;14.54;67.63;96574.38;2063888;28;20218;-67
2023/04/29 11:30:47;;;;;;;4.38;2.67;;;;;;;14.37;68.25;96582.44;2062661;28;20192;-67
2023/04/29 11:31:57;;;;;;;4.70;2.67;;;;;;;14.43;68.99;96583.84;2061350;28;20198;-68
2023/04/29 11:32:59;;;;;;;5.40;3.03;;;;;;;14.57;69.08;96581.22;2062648;28;20195;-68
2023/04/29 11:34:03;;;;;;;5.22;2.55;;;;;;;14.47;68.69;96582.72;2065788;28;20659;-68
2023/04/29 11:35:12;;;;;;;7.68;2.30;;;;;;;14.57;69.37;96583.84;2054979;28;20208;-67
2023/04/29 11:36:14;;;;;;;8.93;2.50;;;;;;;14.68;69.74;96585.84;2057603;28;20690;-67
2023/04/29 11:37:25;;;;;;;4.40;2.60;;;;;;;14.68;69.39;96581.44;2066579;28;20243;-67
2023/04/29 11:38:29;;;;;;;3.25;2.13;;;;;;;14.60;68.87;96591.56;2062370;28;20211;-68
2023/04/29 11:39:35;;;;;;;6.75;2.42;;;;;;;14.31;70.17;96588.91;2061455;28;20250;-67
2023/04/29 11:40:41;;;;;;;3.78;1.98;;;;;;;14.38;70.24;96589.38;2062848;28;20208;-67
2023/04/29 11:41:42;;;;;;;9.18;2.30;;;;;;;14.15;70.75;96593.41;2066979;28;20202;-68
2023/04/29 11:42:45;;;;;;;7.65;2.28;;;;;;;14.24;71.66;96595.47;2073180;28;20198;-67
2023/04/29 11:43:55;;;;;;;5.28;2.25;;;;;;;14.23;71.50;96591.16;2070042;28;20742;-67
2023/04/29 11:44:59;;;;;;;4.47;2.80;;;;;;;14.08;72.27;96578.94;2074927;28;20785;-68
2023/04/29 11:46:00;;;;;;;6.60;3.85;;;;;;;14.03;72.97;96587.94;2074718;28;20203;-67
2023/04/29 11:47:05;;;;;;;9.02;3.65;;;;;;;13.91;73.44;96577.34;2071405;28;20252;-67
2023/04/29 11:48:07;;;;;;;9.30;3.92;;;;;;;14.01;73.46;96599.47;2068776;28;20203;-67
2023/04/29 11:49:08;;;;;;;7.95;3.85;;;;;;;14.17;73.41;96595.00;2068450;28;20233;-67
2023/04/29 11:50:10;;;;;;;5.32;3.90;;;;;;;14.23;72.57;96599.03;2069990;28;20219;-68
2023/04/29 11:51:12;;;;;;;8.77;3.75;;;;;;;13.79;73.47;96586.75;2074872;28;20592;-68
2023/04/29 11:52:15;;;;;;;5.38;3.67;;;;;;;14.02;73.98;96593.31;2075051;28;20218;-67
2023/04/29 11:53:21;;;;;;;5.05;3.45;;;;;;;14.19;73.24;96598.41;2070756;28;20203;-67
2023/04/29 11:54:25;;;;;;;10.38;5.15;;;;;;;14.70;72.67;96599.72;2069786;28;20877;-67
2023/04/29 11:55:26;;;;;;;7.05;5.00;;;;;;;14.76;73.37;96599.34;2075194;28;20209;-67
2023/04/29 11:56:28;;;;;;;12.23;5.40;;;;;;;14.94;73.82;96599.13;2077202;28;20198;-67
2023/04/29 11:57:30;;;;;;;13.05;5.65;;;;;;;15.16;72.31;96591.56;2073720;28;20744;-67
2023/04/29 11:58:31;;;;;;;10.88;6.35;;;;;;;15.27;73.27;96592.69;2063062;28;20198;-68
2023/04/29 11:59:33;;;;;;;11.70;6.40;;;;;;;15.15;72.66;96596.94;2066945;28;20286;-67
2023/04/29 12:00:35;;;;;;;8.80;5.60;;;;;;;15.44;71.70;96594.19;2073475;28;20202;-67
2023/04/29 12:01:36;;;;;;;11.40;5.88;;;;;;;15.58;71.40;96603.81;2066939;28;20203;-67
2023/04/29 12:02:42;;;;;;;10.10;5.93;;;;;;;15.14;72.65;96603.97;2073377;28;20194;-67
2023/04/29 12:03:45;;;;;;;10.88;6.05;;;;;;;15.35;72.12;96604.38;2069362;28;20217;-67
2023/04/29 12:04:47;;;;;;;18.35;6.55;;;;;;;15.44;72.26;96602.09;2069838;28;20199;-67
2023/04/29 12:05:54;;;;;;;10.30;6.22;;;;;;;15.38;71.33;96603.34;2069821;28;20213;-67
2023/04/29 12:06:58;;;;;;;12.10;6.38;;;;;;;15.20;71.52;96600.13;2073916;28;20256;-67
2023/04/29 12:08:00;;;;;;;8.63;5.40;;;;;;;15.14;71.96;96606.59;2064264;28;20253;-67
2023/04/29 12:09:03;;;;;;;9.77;6.13;;;;;;;14.95;72.39;96604.28;2065511;28;20226;-61
2023/04/29 12:10:12;;;;;;;15.55;5.97;;;;;;;14.66;73.70;96593.81;2070462;28;20215;-61
2023/04/29 12:11:13;;;;;;;8.38;5.07;;;;;;;14.47;72.25;96596.69;2069842;28;20652;-62
2023/04/29 12:12:15;;;;;;;18.92;6.68;;;;;;;14.62;72.82;96608.06;2077097;28;20696;-62
2023/04/29 12:13:18;;;;;;;9.70;6.00;;;;;;;14.45;72.28;96609.09;2075058;28;20258;-62
2023/04/29 12:14:20;;;;;;;7.95;5.68;;;;;;;14.61;72.64;96616.03;2073016;28;20205;-62
2023/04/29 12:15:21;;;;;;;8.15;5.63;;;;;;;14.44;73.35;96609.19;2071425;28;20210;-61
2023/04/29 12:16:23;;;;;;;9.40;5.78;;;;;;;14.29;73.42;96617.03;2071002;28;20194;-62
2023/04/29 12:17:24;;;;;;;10.23;6.00;;;;;;;14.45;72.82;96616.97;2069074;28;20226;-61
2023/04/29 12:18:27;;;;;;;8.90;6.05;;;;;;;14.18;74.29;96606.34;2063592;28;20207;-61
2023/04/29 12:19:29;;;;;;;13.48;6.78;;;;;;;14.31;74.40;96619.56;2065129;28;20290;-61
2023/04/29 12:20:31;;;;;;;88.22;47.33;;;;;;;14.45;74.45;96611.72;2062174;28;20229;-62
2023/04/29 12:21:33;;;;;;;185.73;107.53;;;;;;;14.43;73.98;96603.09;2064359;28;20202;-62
2023/04/29 12:22:35;;;;;;;13.43;8.35;;;;;;;14.47;73.18;96615.09;2070538;28;21020;-61
2023/04/29 12:23:36;;;;;;;12.63;7.28;;;;;;;14.57;74.04;96611.91;2070319;28;20203;-61
2023/04/29 12:24:39;;;;;;;9.10;5.97;;;;;;;14.51;73.14;96627.13;2074181;28;20693;-61
2023/04/29 12:25:41;;;;;;;11.82;6.18;;;;;;;14.51;73.06;96602.59;2073663;28;20206;-61
2023/04/29 12:26:44;;;;;;;8.98;6.53;;;;;;;14.56;72.74;96618.09;2065319;28;20262;-61
2023/04/29 12:27:45;;;;;;;10.05;6.28;;;;;;;14.59;73.48;96612.66;2067420;28;20201;-61
2023/04/29 12:28:48;;;;;;;11.15;5.95;;;;;;;14.56;72.98;96616.31;2069073;28;20207;-61
2023/04/29 12:29:51;;;;;;;11.38;7.07;;;;;;;14.35;72.97;96618.47;2069269;28;20215;-61
2023/04/29 12:30:53;;;;;;;15.40;7.43;;;;;;;14.67;73.48;96619.16;2069669;28;20225;-61
2023/04/29 12:31:55;;;;;;;10.82;7.63;;;;;;;14.63;73.14;96624.69;2071590;28;20234;-61
2023/04/29 12:32:56;;;;;;;10.32;7.72;;;;;;;14.60;73.29;96620.47;2070226;28;20725;-61
2023/04/29 12:33:58;;;;;;;10.00;6.65;;;;;;;14.66;72.34;96619.25;2074981;28;20202;-60
2023/04/29 12:34:59;;;;;;;14.18;6.65;;;;;;;14.73;72.20;96615.31;2059766;28;20579;-61
2023/04/29 12:36:01;;;;;;;10.40;7.25;;;;;;;14.97;71.75;96628.72;2058907;28;20315;-61
2023/04/29 12:37:02;;;;;;;15.68;6.75;;;;;;;14.82;71.87;96616.53;2069033;28;20223;-61
2023/04/29 12:38:04;;;;;;;14.73;6.30;;;;;;;15.09;72.11;96629.72;2069047;28;20200;-61
2023/04/29 12:39:09;;;;;;;10.50;7.13;;;;;;;14.93;71.86;96618.47;2073020;28;20203;-61
2023/04/29 12:40:16;;;;;;;19.10;7.40;;;;;;;14.91;71.93;96623.84;2074634;28;20199;-61
2023/04/29 12:41:18;;;;;;;10.93;7.35;;;;;;;15.00;72.28;96614.53;2065696;28;20203;-61
2023/04/29 12:42:19;;;;;;;13.57;7.53;;;;;;;14.89;71.62;96622.25;2057468;28;20233;-61
2023/04/29 12:43:28;;;;;;;13.00;8.57;;;;;;;14.61;72.33;96610.78;2064341;28;20195;-60
2023/04/29 12:44:39;;;;;;;16.42;7.50;;;;;;;14.93;72.02;96621.09;2071024;28;20609;-61
2023/04/29 12:45:41;;;;;;;10.25;6.20;;;;;;;15.13;71.08;96622.47;2071817;28;20193;-61
2023/04/29 12:46:43;;;;;;;10.57;7.20;;;;;;;14.96;71.35;96623.56;2071454;28;20226;-61
2023/04/29 12:47:44;;;;;;;15.90;7.53;;;;;;;15.03;72.40;96630.09;2071749;28;20849;-61
2023/04/29 12:48:46;;;;;;;13.88;7.57;;;;;;;15.09;71.28;96619.19;2074568;28;20241;-62
2023/04/29 12:49:48;;;;;;;11.52;7.28;;;;;;;15.18;70.89;96633.56;2073827;28;20711;-61
2023/04/29 12:50:51;;;;;;;11.38;7.57;;;;;;;15.27;70.99;96629.50;2069446;28;20210;-61
2023/04/29 12:51:52;;;;;;;12.32;7.60;;;;;;;15.31;71.13;96621.31;2072058;28;22552;-61
2023/04/29 12:52:55;;;;;;;9.55;7.35;;;;;;;15.08;71.35;96619.31;2073408;28;20216;-60
2023/04/29 12:53:58;;;;;;;12.48;8.10;;;;;;;15.13;71.21;96622.47;2074474;28;20596;-60
2023/04/29 12:54:59;;;;;;;12.05;7.28;;;;;;;15.20;71.16;96626.41;2068754;28;20230;-61
2023/04/29 12:56:01;;;;;;;15.02;7.47;;;;;;;15.08;71.25;96616.69;2069785;28;20704;-61
2023/04/29 12:57:03;;;;;;;11.88;7.97;;;;;;;15.14;70.66;96629.44;2071060;28;20795;-61
2023/04/29 12:58:04;;;;;;;14.77;7.47;;;;;;;15.06;70.90;96629.06;2074318;28;20199;-61
2023/04/29 12:59:08;;;;;;;10.23;6.22;;;;;;;14.78;71.49;96621.13;2074190;28;20193;-61
2023/04/29 13:00:10;;;;;;;10.30;7.03;;;;;;;14.86;71.12;96623.28;2076038;28;20240;-61
2023/04/29 13:01:12;;;;;;;11.70;7.13;;;;;;;15.09;70.93;96624.47;2072651;28;20214;-61
2023/04/29 13:02:18;;;;;;;18.55;8.13;;;;;;;15.12;70.91;96626.91;2066200;28;20879;-61
2023/04/29 13:03:20;;;;;;;14.52;7.20;;;;;;;15.40;69.30;96619.03;2067970;28;20289;-61
2023/04/29 13:04:23;;;;;;;11.00;7.03;;;;;;;15.55;70.26;96625.09;2066839;28;20207;-61
2023/04/29 13:05:24;;;;;;;9.52;6.75;;;;;;;15.67;69.24;96629.56;2066110;28;20228;-60
2023/04/29 13:06:26;;;;;;;14.38;8.27;;;;;;;15.14;70.23;96588.19;2075429;28;20251;-61
2023/04/29 13:07:27;;;;;;;14.18;7.65;;;;;;;15.60;69.96;96625.63;2074906;28;20283;-61
2023/04/29 13:08:29;;;;;;;19.85;8.00;;;;;;;15.89;69.30;96631.63;2073181;28;20201;-62
2023/04/29 13:09:31;;;;;;;67.78;40.22;;;;;;;16.02;68.85;96628.19;2072170;28;20205;-63
2023/04/29 13:10:33;;;;;;;96.18;53.80;;;;;;;16.11;68.40;96627.56;2072579;28;20203;-62
2023/04/29 13:11:35;;;;;;;27.25;16.02;;;;;;;16.14;68.95;96627.38;2071132;28;20698;-62
2023/04/29 13:12:37;;;;;;;25.60;14.70;;;;;;;15.90;68.02;96635.97;2070109;28;20558;-64
2023/04/29 13:13:39;;;;;;;12.60;7.45;;;;;;;15.70;69.11;96624.09;2072891;28;20229;-64
2023/04/29 13:14:40;;;;;;;11.45;7.38;;;;;;;15.30;69.80;96638.03;2072156;28;20712;-63
2023/04/29 13:15:42;;;;;;;10.23;7.30;;;;;;;15.31;70.44;96639.75;2070794;28;20293;-63
2023/04/29 13:16:44;;;;;;;14.18;8.10;;;;;;;15.09;70.80;96637.59;2070102;28;20203;-63
2023/04/29 13:17:46;;;;;;;10.15;7.70;;;;;;;14.96;71.35;96636.72;2070034;28;20198;-63
2023/04/29 13:18:47;;;;;;;19.77;7.32;;;;;;;15.19;70.58;96633.44;2069626;28;20221;-64
2023/04/29 13:20:10;;;;;;;16.00;7.82;;;;;;;15.19;70.07;96637.88;2074546;28;20193;-63
2023/04/29 13:21:12;;;;;;;12.48;7.22;;;;;;;14.80;70.34;96626.28;2073894;28;20194;-64
2023/04/29 13:22:13;;;;;;;13.40;7.82;;;;;;;15.12;70.08;96623.41;2071153;28;20252;-64
2023/04/29 13:23:15;;;;;;;13.57;8.02;;;;;;;14.97;70.71;96633.97;2074862;28;20244;-64
2023/04/29 13:24:18;;;;;;;10.55;7.50;;;;;;;14.58;71.36;96619.69;2063204;28;20205;-64
2023/04/29 13:25:20;;;;;;;15.10;6.93;;;;;;;14.79;72.34;96632.47;2065278;28;20203;-63
2023/04/29 13:26:23;;;;;;;12.90;6.85;;;;;;;14.96;71.76;96648.06;2068786;28;20206;-64
2023/04/29 13:27:25;;;;;;;11.02;7.80;;;;;;;15.02;70.94;96638.97;2068813;28;20265;-63
2023/04/29 13:28:26;;;;;;;13.90;8.65;;;;;;;14.71;71.20;96640.84;2067182;28;21176;-63
2023/04/29 13:29:27;;;;;;;11.18;7.45;;;;;;;14.48;71.56;96648.31;2069315;28;20207;-63
2023/04/29 13:30:29;;;;;;;13.63;7.57;;;;;;;14.53;71.66;96638.34;2070471;28;20206;-63
2023/04/29 13:31:31;;;;;;;10.20;8.05;;;;;;;14.83;71.53;96637.47;2070642;28;20195;-63
2023/04/29 13:32:32;;;;;;;13.38;7.70;;;;;;;14.86;71.66;96639.88;2070376;28;20218;-63
2023/04/29 13:33:47;;;;;;;13.20;8.57;;;;;;;14.82;71.19;96642.81;2070823;28;20801;-63
2023/04/29 13:34:49;;;;;;;11.93;6.95;;;;;;;14.74;72.15;96642.44;2074898;28;20601;-63
2023/04/29 13:35:51;;;;;;;13.32;8.30;;;;;;;14.77;71.68;96650.16;2076214;28;20209;-63
2023/04/29 13:36:52;;;;;;;10.15;7.25;;;;;;;14.79;72.45;96643.00;2070194;28;20233;-63
2023/04/29 13:37:54;;;;;;;12.07;7.72;;;;;;;14.71;72.68;96642.63;2070416;28;20673;-63
2023/04/29 13:38:55;;;;;;;14.18;7.72;;;;;;;14.48;73.20;96648.31;2072136;28;20201;-63
2023/04/29 13:39:56;;;;;;;20.50;7.82;;;;;;;14.41;73.52;96647.00;2072448;28;20284;-63
2023/04/29 13:40:58;;;;;;;13.90;8.30;;;;;;;14.58;72.76;96653.03;2067259;28;20262;-63
2023/04/29 13:41:59;;;;;;;15.60;7.63;;;;;;;14.78;72.24;96649.19;2068004;28;20743;-63